createdAt,value
2016-06-29T00:00:41.517Z,0
2016-06-29T00:01:41.543Z,0
2016-06-29T00:02:56.420Z,0
2016-06-29T00:03:55.835Z,0
2016-06-29T00:04:41.006Z,0
2016-06-29T00:05:55.870Z,0
2016-06-29T00:06:41.638Z,0
2016-06-29T00:07:41.060Z,0
2016-06-29T00:08:41.711Z,0
2016-06-29T00:09:41.199Z,0
2016-06-29T00:10:41.138Z,0
2016-06-29T00:11:41.755Z,0
2016-06-29T00:12:41.779Z,0
2016-06-29T00:13:41.189Z,0
2016-06-29T00:14:42.456Z,0
2016-06-29T00:15:41.871Z,0
2016-06-29T00:16:41.883Z,0
2016-06-29T00:17:41.917Z,0
2016-06-29T00:18:56.856Z,0
2016-06-29T00:19:56.834Z,0
2016-06-29T00:20:56.277Z,0
2016-06-29T00:21:42.050Z,0
2016-06-29T00:22:42.023Z,0
2016-06-29T00:23:42.688Z,0
2016-06-29T00:24:56.954Z,0
2016-06-29T00:25:40.897Z,0
2016-06-29T00:26:41.543Z,0
2016-06-29T00:27:41.573Z,0
2016-06-29T00:28:42.806Z,0
2016-06-29T00:29:42.223Z,0
2016-06-29T00:30:41.636Z,0
2016-06-29T00:31:57.141Z,0
2016-06-29T00:32:41.670Z,0
2016-06-29T00:33:57.189Z,0
2016-06-29T00:34:42.403Z,0
2016-06-29T00:35:42.371Z,0
2016-06-29T00:36:41.167Z,0
2016-06-29T00:38:41.814Z,0
2016-06-29T00:39:42.470Z,0
2016-06-29T00:40:41.892Z,0
2016-06-29T00:41:43.158Z,0
2016-06-29T00:42:41.931Z,0
2016-06-29T00:44:56.830Z,0
2016-06-29T00:45:42.599Z,0
2016-06-29T00:46:43.221Z,0
2016-06-29T00:47:56.937Z,0
2016-06-29T00:48:42.705Z,0
2016-06-29T00:49:42.075Z,0
2016-06-29T00:50:42.733Z,0
2016-06-29T00:51:42.166Z,0
2016-06-29T00:52:57.660Z,0
2016-06-29T00:53:42.188Z,0
2016-06-29T00:54:43.438Z,0
2016-06-29T00:55:42.858Z,0
2016-06-29T00:56:43.504Z,0
2016-06-29T00:57:42.907Z,0
2016-06-29T00:58:42.315Z,0
2016-06-29T00:59:42.969Z,0
2016-06-29T01:00:42.974Z,0
2016-06-29T01:01:43.019Z,0
2016-06-29T01:02:41.831Z,0
2016-06-29T01:04:43.080Z,0
2016-06-29T01:05:57.970Z,0
2016-06-29T01:06:43.123Z,0
2016-06-29T01:07:42.530Z,0
2016-06-29T01:08:58.047Z,0
2016-06-29T01:09:43.196Z,0
2016-06-29T01:10:57.484Z,0
2016-06-29T01:11:43.234Z,0
2016-06-29T01:12:42.655Z,0
2016-06-29T01:13:43.308Z,0
2016-06-29T01:14:42.727Z,0
2016-06-29T01:15:57.598Z,0
2016-06-29T01:16:42.165Z,0
2016-06-29T01:17:42.784Z,0
2016-06-29T01:18:43.431Z,0
2016-06-29T01:19:57.707Z,0
2016-06-29T01:20:44.085Z,0
2016-06-29T01:21:42.951Z,0
2016-06-29T01:22:43.535Z,0
2016-06-29T01:23:43.559Z,0
2016-06-29T01:24:57.827Z,0
2016-06-29T01:25:42.357Z,0
2016-06-29T01:26:43.639Z,0
2016-06-29T01:27:43.012Z,0
2016-06-29T01:28:42.447Z,0
2016-06-29T01:29:43.683Z,0
2016-06-29T01:30:43.103Z,0
2016-06-29T01:31:43.134Z,0
2016-06-29T01:32:58.035Z,0
2016-06-29T01:33:43.180Z,0
2016-06-29T01:34:43.211Z,0
2016-06-29T01:35:43.839Z,0
2016-06-29T01:36:44.473Z,0
2016-06-29T01:37:43.882Z,0
2016-06-29T01:38:43.905Z,0
2016-06-29T01:39:43.329Z,0
2016-06-29T01:40:58.222Z,0
2016-06-29T01:41:43.979Z,0
2016-06-29T01:42:43.374Z,0
2016-06-29T01:43:43.411Z,0
2016-06-29T01:44:57.703Z,0
2016-06-29T01:45:58.332Z,0
2016-06-29T01:46:44.736Z,0
2016-06-29T01:47:44.120Z,0
2016-06-29T01:48:42.945Z,0
2016-06-29T01:49:44.166Z,0
2016-06-29T01:51:58.478Z,0
2016-06-29T01:52:44.242Z,0
2016-06-29T01:53:44.882Z,0
2016-06-29T01:54:44.901Z,0
2016-06-29T01:55:58.594Z,0
2016-06-29T01:56:43.736Z,0
2016-06-29T01:57:43.756Z,0
2016-06-29T01:58:43.199Z,0
2016-06-29T01:59:45.038Z,0
2016-06-29T02:00:59.310Z,0
2016-06-29T02:01:43.858Z,0
2016-06-29T02:02:45.128Z,0
2016-06-29T02:03:43.899Z,0
2016-06-29T02:04:43.930Z,0
2016-06-29T02:05:45.182Z,0
2016-06-29T02:06:44.585Z,0
2016-06-29T02:07:43.996Z,0
2016-06-29T02:08:44.624Z,4
2016-06-29T02:09:44.664Z,4
2016-06-29T02:10:59.570Z,0
2016-06-29T02:11:43.500Z,0
2016-06-29T02:12:45.332Z,4
2016-06-29T02:13:43.538Z,4
2016-06-29T02:14:59.661Z,4
2016-06-29T02:15:58.478Z,4
2016-06-29T02:16:45.474Z,4
2016-06-29T02:17:44.250Z,4
2016-06-29T02:18:44.264Z,4
2016-06-29T02:19:45.508Z,8
2016-06-29T02:20:44.334Z,4
2016-06-29T02:21:44.353Z,8
2016-06-29T02:22:44.359Z,4
2016-06-29T02:23:44.996Z,8
2016-06-29T02:25:44.453Z,8
2016-06-29T02:26:45.062Z,8
2016-06-29T02:27:59.374Z,8
2016-06-29T02:29:44.571Z,12
2016-06-29T02:30:45.174Z,12
2016-06-29T02:31:44.586Z,12
2016-06-29T02:32:44.610Z,16
2016-06-29T02:33:44.655Z,12
2016-06-29T02:34:44.046Z,16
2016-06-29T02:35:45.907Z,16
2016-06-29T02:36:44.117Z,20
2016-06-29T02:37:45.967Z,20
2016-06-29T02:38:44.162Z,20
2016-06-29T02:39:44.797Z,20
2016-06-29T02:40:45.427Z,20
2016-06-29T02:41:45.435Z,24
2016-06-29T02:42:44.852Z,24
2016-06-29T02:43:59.777Z,24
2016-06-29T02:44:59.790Z,32
2016-06-29T02:45:45.565Z,32
2016-06-29T02:47:00.444Z,36
2016-06-29T02:47:44.973Z,36
2016-06-29T02:49:46.254Z,28
2016-06-29T02:50:46.272Z,32
2016-06-29T02:51:45.698Z,28
2016-06-29T02:52:46.310Z,32
2016-06-29T02:53:45.130Z,32
2016-06-29T02:54:45.763Z,32
2016-06-29T02:55:45.805Z,36
2016-06-29T02:56:45.833Z,36
2016-06-29T02:57:45.236Z,40
2016-06-29T02:59:00.735Z,44
2016-06-29T03:00:00.177Z,44
2016-06-29T03:01:00.786Z,48
2016-06-29T03:03:00.227Z,52
2016-06-29T03:03:46.594Z,52
2016-06-29T03:04:46.053Z,56
2016-06-29T03:05:46.034Z,56
2016-06-29T03:06:45.447Z,56
2016-06-29T03:07:45.495Z,60
2016-06-29T03:08:46.117Z,60
2016-06-29T03:09:46.134Z,60
2016-06-29T03:10:46.154Z,56
2016-06-29T03:13:00.483Z,68
2016-06-29T03:13:46.233Z,68
2016-06-29T03:14:46.283Z,76
2016-06-29T03:15:59.942Z,80
2016-06-29T03:16:45.089Z,84
2016-06-29T03:17:46.347Z,92
2016-06-29T03:18:45.746Z,100
2016-06-29T03:19:45.172Z,108
2016-06-29T03:20:45.793Z,120
2016-06-29T03:21:45.245Z,132
2016-06-29T03:22:45.239Z,136
2016-06-29T03:23:45.863Z,144
2016-06-29T03:24:45.277Z,144
2016-06-29T03:25:45.314Z,156
2016-06-29T03:26:45.964Z,160
2016-06-29T03:27:47.194Z,168
2016-06-29T03:29:00.889Z,176
2016-06-29T03:29:46.005Z,180
2016-06-29T03:31:00.930Z,184
2016-06-29T03:32:01.569Z,188
2016-06-29T03:33:01.571Z,184
2016-06-29T03:33:46.121Z,188
2016-06-29T03:34:46.139Z,188
2016-06-29T03:35:46.157Z,200
2016-06-29T03:36:47.411Z,212
2016-06-29T03:37:46.815Z,216
2016-06-29T03:38:46.855Z,212
2016-06-29T03:39:46.874Z,204
2016-06-29T03:41:00.547Z,188
2016-06-29T03:42:00.588Z,180
2016-06-29T03:42:45.721Z,180
2016-06-29T03:44:01.254Z,164
2016-06-29T03:44:47.038Z,156
2016-06-29T03:46:47.069Z,132
2016-06-29T03:47:47.080Z,128
2016-06-29T03:48:47.731Z,124
2016-06-29T03:49:47.734Z,124
2016-06-29T03:51:01.409Z,132
2016-06-29T03:52:00.837Z,144
2016-06-29T03:52:46.573Z,156
2016-06-29T03:53:47.235Z,172
2016-06-29T03:54:46.661Z,176
2016-06-29T03:55:47.254Z,184
2016-06-29T03:56:47.294Z,188
2016-06-29T03:57:46.705Z,192
2016-06-29T03:58:47.342Z,196
2016-06-29T03:59:46.773Z,200
2016-06-29T04:00:46.790Z,204
2016-06-29T04:01:47.415Z,204
2016-06-29T04:03:15.969Z,192
2016-06-29T04:03:47.456Z,188
2016-06-29T04:04:47.494Z,184
2016-06-29T04:05:46.904Z,180
2016-06-29T04:06:48.152Z,176
2016-06-29T04:07:48.208Z,172
2016-06-29T04:09:47.643Z,176
2016-06-29T04:10:47.636Z,180
2016-06-29T04:13:02.562Z,196
2016-06-29T04:13:47.731Z,200
2016-06-29T04:14:48.389Z,200
2016-06-29T04:15:47.746Z,212
2016-06-29T04:16:46.602Z,212
2016-06-29T04:17:48.467Z,212
2016-06-29T04:19:02.754Z,208
2016-06-29T04:19:47.275Z,204
2016-06-29T04:20:47.309Z,204
2016-06-29T04:21:47.941Z,200
2016-06-29T04:22:47.380Z,192
2016-06-29T04:23:47.380Z,188
2016-06-29T04:24:48.026Z,192
2016-06-29T04:25:48.034Z,188
2016-06-29T04:27:02.319Z,184
2016-06-29T04:28:48.131Z,188
2016-06-29T04:29:48.948Z,200
2016-06-29T04:30:48.752Z,208
2016-06-29T04:31:48.141Z,216
2016-06-29T04:32:48.196Z,228
2016-06-29T04:34:02.463Z,240
2016-06-29T04:35:02.499Z,248
2016-06-29T04:35:48.905Z,264
2016-06-29T04:36:48.886Z,296
2016-06-29T04:37:47.070Z,332
2016-06-29T04:38:48.945Z,376
2016-06-29T04:39:48.343Z,408
2016-06-29T04:41:49.008Z,472
2016-06-29T04:42:48.462Z,488
2016-06-29T04:44:03.330Z,516
2016-06-29T04:44:48.455Z,552
2016-06-29T04:46:49.155Z,724
2016-06-29T04:47:47.939Z,828
2016-06-29T04:49:48.596Z,1000
2016-06-29T04:51:03.114Z,1056
2016-06-29T04:52:02.927Z,1080
2016-06-29T04:52:48.075Z,1100
2016-06-29T04:54:02.345Z,1108
2016-06-29T04:54:48.715Z,1108
2016-06-29T04:56:03.014Z,1116
2016-06-29T04:56:48.151Z,1136
2016-06-29T04:57:48.791Z,1168
2016-06-29T04:58:48.817Z,1196
2016-06-29T04:59:48.227Z,1200
2016-06-29T05:00:48.249Z,1212
2016-06-29T05:01:49.505Z,1268
2016-06-29T05:02:48.314Z,1420
2016-06-29T05:03:48.969Z,1732
2016-06-29T05:04:48.353Z,2092
2016-06-29T05:06:02.650Z,2464
2016-06-29T05:07:49.655Z,2444
2016-06-29T05:08:48.450Z,2264
2016-06-29T05:10:03.353Z,2080
2016-06-29T05:10:48.510Z,2036
2016-06-29T05:11:48.500Z,2080
2016-06-29T05:12:49.155Z,2228
2016-06-29T05:13:49.193Z,2364
2016-06-29T05:15:49.249Z,2660
2016-06-29T05:17:03.527Z,2620
2016-06-29T05:17:48.696Z,2556
2016-06-29T05:18:48.091Z,2624
2016-06-29T05:19:49.936Z,3020
2016-06-29T05:20:48.742Z,3528
2016-06-29T05:21:49.435Z,4132
2016-06-29T05:23:04.288Z,4728
2016-06-29T05:23:49.425Z,4868
2016-06-29T05:24:49.449Z,5352
2016-06-29T05:26:03.735Z,5800
2016-06-29T05:26:49.510Z,5756
2016-06-29T05:27:49.525Z,5632
2016-06-29T05:28:48.939Z,5460
2016-06-29T05:30:49.609Z,5356
2016-06-29T05:31:48.407Z,5496
2016-06-29T05:32:49.054Z,6596
2016-06-29T05:33:49.075Z,9236
2016-06-29T05:34:49.111Z,15148
2016-06-29T05:35:49.119Z,13800
2016-06-29T05:36:50.359Z,14596
2016-06-29T05:38:04.655Z,20288
2016-06-29T05:38:49.798Z,16672
2016-06-29T05:39:50.444Z,16672
2016-06-29T05:40:49.236Z,35328
2016-06-29T05:42:03.538Z,32704
2016-06-29T05:42:49.919Z,27648
2016-06-29T05:43:49.923Z,84448
2016-06-29T05:44:49.337Z,80192
2016-06-29T05:46:04.275Z,16280
2016-06-29T05:47:04.281Z,10012
2016-06-29T05:47:50.031Z,9620
2016-06-29T05:48:50.667Z,9280
2016-06-29T05:49:50.682Z,9208
2016-06-29T05:51:03.757Z,11344
2016-06-29T05:51:48.934Z,6976
2016-06-29T05:53:05.050Z,5648
2016-06-29T05:54:05.067Z,5092
2016-06-29T05:54:50.218Z,4816
2016-06-29T05:55:49.005Z,4604
2016-06-29T05:56:50.255Z,4648
2016-06-29T05:57:50.286Z,4888
2016-06-29T05:59:04.608Z,5680
2016-06-29T05:59:49.799Z,6268
2016-06-29T06:00:50.982Z,7364
2016-06-29T06:01:49.806Z,10944
2016-06-29T06:03:05.301Z,11740
2016-06-29T06:03:49.859Z,17344
2016-06-29T06:05:04.743Z,51328
2016-06-29T06:05:50.496Z,30528
2016-06-29T06:06:49.962Z,11644
2016-06-29T06:07:49.946Z,9532
2016-06-29T06:08:51.210Z,8308
2016-06-29T06:10:04.883Z,6960
2016-06-29T06:10:50.018Z,6164
2016-06-29T06:11:50.647Z,5536
2016-06-29T06:12:50.674Z,5236
2016-06-29T06:14:49.519Z,5600
2016-06-29T06:16:05.084Z,5484
2016-06-29T06:16:50.201Z,5308
2016-06-29T06:17:50.216Z,5000
2016-06-29T06:18:49.622Z,4248
2016-06-29T06:19:50.887Z,6140
2016-06-29T06:20:50.907Z,6500
2016-06-29T06:21:49.692Z,9868
2016-06-29T06:22:50.338Z,16704
2016-06-29T06:23:50.972Z,28768
2016-06-29T06:25:04.655Z,11536
2016-06-29T06:26:05.345Z,12696
2016-06-29T06:26:51.045Z,10644
2016-06-29T06:27:49.864Z,10356
2016-06-29T06:29:51.152Z,17344
2016-06-29T06:30:51.790Z,18176
2016-06-29T06:31:51.806Z,13520
2016-06-29T06:32:51.203Z,9676
2016-06-29T06:33:51.891Z,8312
2016-06-29T06:34:51.266Z,6952
2016-06-29T06:35:50.685Z,6656
2016-06-29T06:36:51.323Z,6420
2016-06-29T06:38:05.613Z,7656
2016-06-29T06:38:51.385Z,6708
2016-06-29T06:39:52.007Z,6800
2016-06-29T06:41:06.301Z,8192
2016-06-29T06:41:51.445Z,7992
2016-06-29T06:42:50.891Z,8100
2016-06-29T06:43:51.512Z,5860
2016-06-29T06:44:52.205Z,9364
2016-06-29T06:45:50.341Z,9208
2016-06-29T06:46:51.586Z,8244
2016-06-29T06:47:50.990Z,7156
2016-06-29T06:49:06.517Z,13924
2016-06-29T06:49:51.657Z,12432
2016-06-29T06:52:50.525Z,40768
2016-06-29T06:53:52.379Z,85120
2016-06-29T06:55:06.059Z,89280
2016-06-29T06:55:51.816Z,31392
2016-06-29T06:56:51.839Z,89568
2016-06-29T06:57:50.656Z,88064
2016-06-29T06:58:51.286Z,85760
2016-06-29T06:59:51.334Z,28320
2016-06-29T07:00:51.954Z,12688
2016-06-29T07:01:51.366Z,23744
2016-06-29T07:02:52.112Z,24064
2016-06-29T07:03:52.033Z,16124
2016-06-29T07:05:06.950Z,11568
2016-06-29T07:05:52.709Z,12060
2016-06-29T07:06:52.736Z,10216
2016-06-29T07:07:51.537Z,8048
2016-06-29T07:09:07.079Z,11132
2016-06-29T07:09:52.198Z,13860
2016-06-29T07:10:51.644Z,53792
2016-06-29T07:13:05.966Z,9624
2016-06-29T07:14:06.620Z,10728
2016-06-29T07:14:51.742Z,12884
2016-06-29T07:15:52.982Z,12240
2016-06-29T07:16:52.415Z,10948
2016-06-29T07:17:51.822Z,9468
2016-06-29T07:18:52.479Z,8488
2016-06-29T07:19:51.898Z,7628
2016-06-29T07:21:51.365Z,5560
2016-06-29T07:22:51.961Z,6396
2016-06-29T07:23:51.441Z,6492
2016-06-29T07:24:51.408Z,5732
2016-06-29T07:26:06.325Z,6532
2016-06-29T07:26:52.738Z,6528
2016-06-29T07:27:52.112Z,6016
2016-06-29T07:29:06.399Z,6804
2016-06-29T07:29:52.771Z,7336
2016-06-29T07:31:52.892Z,12280
2016-06-29T07:32:52.253Z,9068
2016-06-29T07:33:52.269Z,7152
2016-06-29T07:34:53.521Z,7092
2016-06-29T07:35:52.946Z,9024
2016-06-29T07:36:52.965Z,8812
2016-06-29T07:37:52.376Z,7308
2016-06-29T07:39:53.058Z,9556
2016-06-29T07:40:53.715Z,10876
2016-06-29T07:41:53.130Z,11580
2016-06-29T07:43:07.440Z,10264
2016-06-29T07:43:52.572Z,12400
2016-06-29T07:45:07.451Z,17248
2016-06-29T07:45:53.822Z,17600
2016-06-29T07:46:53.259Z,12936
2016-06-29T07:48:08.132Z,22112
2016-06-29T07:48:53.923Z,26976
2016-06-29T07:49:53.972Z,37568
2016-06-29T07:50:52.139Z,22688
2016-06-29T07:51:53.378Z,57024
2016-06-29T07:52:53.398Z,28160
2016-06-29T07:54:07.084Z,62080
2016-06-29T07:54:53.446Z,46752
2016-06-29T07:55:52.929Z,19520
2016-06-29T07:56:53.516Z,26048
2016-06-29T07:57:52.329Z,22432
2016-06-29T07:58:52.360Z,69056
2016-06-29T07:59:54.221Z,55424
2016-06-29T08:01:07.904Z,62944
2016-06-29T08:02:08.550Z,29344
2016-06-29T08:02:53.685Z,29472
2016-06-29T08:03:52.496Z,62624
2016-06-29T08:04:53.758Z,16564
2016-06-29T08:05:53.170Z,10964
2016-06-29T08:06:54.449Z,34496
2016-06-29T08:07:53.835Z,22464
2016-06-29T08:08:53.875Z,28512
2016-06-29T08:10:53.324Z,22432
2016-06-29T08:11:54.561Z,28256
2016-06-29T08:12:53.990Z,19008
2016-06-29T08:13:54.013Z,12760
2016-06-29T08:16:08.973Z,15804
2016-06-29T08:17:08.393Z,28672
2016-06-29T08:17:54.153Z,25440
2016-06-29T08:18:54.789Z,25120
2016-06-29T08:19:54.837Z,25696
2016-06-29T08:20:54.850Z,24960
2016-06-29T08:21:53.679Z,21664
2016-06-29T08:22:54.297Z,24608
2016-06-29T08:24:54.375Z,15652
2016-06-29T08:25:54.996Z,11320
2016-06-29T08:26:55.033Z,10860
2016-06-29T08:27:53.863Z,9800
2016-06-29T08:28:53.878Z,8932
2016-06-29T08:29:54.575Z,10016
2016-06-29T08:30:53.330Z,23456
2016-06-29T08:32:53.994Z,20448
2016-06-29T08:33:54.638Z,24096
2016-06-29T08:34:54.675Z,22560
2016-06-29T08:35:54.697Z,21088
2016-06-29T08:36:54.718Z,20768
2016-06-29T08:37:55.407Z,21440
2016-06-29T08:39:54.820Z,21920
2016-06-29T08:40:54.894Z,22272
2016-06-29T08:42:09.147Z,22688
2016-06-29T08:42:54.961Z,22560
2016-06-29T08:43:54.337Z,15076
2016-06-29T08:44:55.587Z,23872
2016-06-29T08:45:54.395Z,22080
2016-06-29T08:46:55.646Z,11144
2016-06-29T08:48:09.957Z,22080
2016-06-29T08:48:55.105Z,20832
2016-06-29T08:50:08.788Z,23168
2016-06-29T08:50:54.548Z,23904
2016-06-29T08:51:54.589Z,21632
2016-06-29T08:52:55.219Z,14300
2016-06-29T08:53:55.879Z,19648
2016-06-29T08:54:55.295Z,12512
2016-06-29T08:55:55.342Z,12556
2016-06-29T08:56:55.352Z,18112
2016-06-29T08:58:09.674Z,22784
2016-06-29T08:58:54.811Z,22080
2016-06-29T08:59:54.827Z,14596
2016-06-29T09:01:10.393Z,10684
2016-06-29T09:01:54.893Z,9116
2016-06-29T09:02:54.335Z,8572
2016-06-29T09:04:09.893Z,10164
2016-06-29T09:04:56.217Z,9916
2016-06-29T09:05:55.018Z,17984
2016-06-29T09:06:55.671Z,14256
2016-06-29T09:07:55.700Z,22592
2016-06-29T09:08:55.767Z,21728
2016-06-29T09:09:55.778Z,13212
2016-06-29T09:10:55.796Z,12904
2016-06-29T09:11:55.822Z,12460
2016-06-29T09:12:55.249Z,11328
2016-06-29T09:13:55.903Z,9580
2016-06-29T09:14:56.547Z,8396
2016-06-29T09:16:56.004Z,5368
2016-06-29T09:17:56.012Z,4360
2016-06-29T09:18:56.671Z,4364
2016-06-29T09:20:55.530Z,4948
2016-06-29T09:22:56.782Z,4736
2016-06-29T09:23:54.998Z,5400
2016-06-29T09:24:56.854Z,5980
2016-06-29T09:25:55.675Z,5756
2016-06-29T09:26:55.683Z,5964
2016-06-29T09:27:56.931Z,6272
2016-06-29T09:28:56.349Z,6608
2016-06-29T09:29:57.018Z,6804
2016-06-29T09:30:56.425Z,7624
2016-06-29T09:31:56.446Z,8320
2016-06-29T09:32:56.480Z,8300
2016-06-29T09:34:11.398Z,9204
2016-06-29T09:34:57.153Z,9420
2016-06-29T09:36:10.851Z,9748
2016-06-29T09:36:55.999Z,9560
2016-06-29T09:37:57.237Z,9160
2016-06-29T09:38:56.066Z,12016
2016-06-29T09:39:56.149Z,12224
2016-06-29T09:40:56.149Z,11912
2016-06-29T09:42:11.023Z,20640
2016-06-29T09:43:11.686Z,12044
2016-06-29T09:43:56.814Z,20800
2016-06-29T09:44:56.257Z,10996
2016-06-29T09:45:56.256Z,9820
2016-06-29T09:47:11.215Z,9236
2016-06-29T09:47:57.543Z,9128
2016-06-29T09:48:56.349Z,9192
2016-06-29T09:49:56.987Z,8796
2016-06-29T09:51:11.300Z,7944
2016-06-29T09:52:56.474Z,7620
2016-06-29T09:53:57.104Z,7572
2016-06-29T09:54:56.549Z,7208
2016-06-29T09:55:57.768Z,5868
2016-06-29T09:56:57.191Z,4888
2016-06-29T09:57:56.639Z,4432
2016-06-29T09:58:57.264Z,4232
2016-06-29T09:59:56.675Z,4236
2016-06-29T10:00:56.732Z,4296
2016-06-29T10:01:57.349Z,4220
2016-06-29T10:02:57.373Z,3912
2016-06-29T10:03:56.795Z,3556
2016-06-29T10:04:58.049Z,3092
2016-06-29T10:05:58.097Z,2680
2016-06-29T10:06:57.491Z,2476
2016-06-29T10:08:12.397Z,2488
2016-06-29T10:08:57.578Z,2476
2016-06-29T10:09:57.573Z,2572
2016-06-29T10:10:57.026Z,2636
2016-06-29T10:11:57.643Z,2728
2016-06-29T10:12:57.670Z,2620
2016-06-29T10:14:57.751Z,2792
2016-06-29T10:15:57.163Z,3060
2016-06-29T10:16:57.180Z,3664
2016-06-29T10:17:57.208Z,4464
2016-06-29T10:18:57.838Z,5772
2016-06-29T10:19:57.881Z,7124
2016-06-29T10:20:58.504Z,8436
2016-06-29T10:21:57.352Z,9036
2016-06-29T10:23:12.238Z,9680
2016-06-29T10:23:57.391Z,10440
2016-06-29T10:25:12.962Z,12412
2016-06-29T10:25:57.434Z,13664
2016-06-29T10:26:58.078Z,15800
2016-06-29T10:27:57.496Z,14232
2016-06-29T10:28:57.522Z,13996
2016-06-29T10:29:57.537Z,14180
2016-06-29T10:31:11.846Z,14632
2016-06-29T10:31:58.819Z,16396
2016-06-29T10:32:58.276Z,17088
2016-06-29T10:33:57.683Z,15264
2016-06-29T10:34:58.911Z,14684
2016-06-29T10:35:58.337Z,14644
2016-06-29T10:36:57.740Z,14680
2016-06-29T10:38:12.652Z,15824
2016-06-29T10:39:12.101Z,15812
2016-06-29T10:39:58.442Z,16212
2016-06-29T10:41:57.898Z,14580
2016-06-29T10:43:12.173Z,14572
2016-06-29T10:44:13.439Z,14600
2016-06-29T10:44:58.591Z,14092
2016-06-29T10:45:58.002Z,13904
2016-06-29T10:46:58.031Z,13736
2016-06-29T10:47:58.064Z,14924
2016-06-29T10:48:58.715Z,13636
2016-06-29T10:49:59.348Z,13280
2016-06-29T10:50:58.817Z,13132
2016-06-29T10:51:58.825Z,13560
2016-06-29T10:53:13.087Z,15792
2016-06-29T10:53:57.646Z,13340
2016-06-29T10:55:58.909Z,13180
2016-06-29T10:56:58.326Z,15224
2016-06-29T10:57:59.580Z,19232
2016-06-29T10:58:58.383Z,18336
2016-06-29T10:59:59.629Z,17344
2016-06-29T11:00:58.490Z,15764
2016-06-29T11:02:57.920Z,12876
2016-06-29T11:03:58.545Z,11964
2016-06-29T11:05:12.835Z,11128
2016-06-29T11:05:59.212Z,10496
2016-06-29T11:06:59.457Z,10208
2016-06-29T11:07:59.264Z,9648
2016-06-29T11:08:59.303Z,10108
2016-06-29T11:09:59.948Z,9876
2016-06-29T11:11:14.258Z,9804
2016-06-29T11:11:58.769Z,9872
2016-06-29T11:13:00.021Z,9760
2016-06-29T11:14:00.067Z,9644
2016-06-29T11:14:59.536Z,9580
2016-06-29T11:16:00.118Z,9468
2016-06-29T11:17:00.142Z,9492
2016-06-29T11:18:00.171Z,9460
2016-06-29T11:18:58.975Z,9352
2016-06-29T11:19:59.007Z,9172
2016-06-29T11:21:13.941Z,9040
2016-06-29T11:21:59.731Z,8848
2016-06-29T11:22:59.086Z,8688
2016-06-29T11:23:59.787Z,8376
2016-06-29T11:25:00.376Z,8444
2016-06-29T11:26:14.075Z,8140
2016-06-29T11:26:59.219Z,7968
2016-06-29T11:27:58.667Z,7720
2016-06-29T11:28:58.662Z,7908
2016-06-29T11:29:59.939Z,7792
2016-06-29T11:30:59.336Z,7676
2016-06-29T11:32:14.854Z,7524
2016-06-29T11:33:00.003Z,7248
2016-06-29T11:34:00.026Z,7356
2016-06-29T11:35:00.064Z,7252
2016-06-29T11:36:00.100Z,7172
2016-06-29T11:37:00.106Z,7100
2016-06-29T11:37:58.943Z,6944
2016-06-29T11:39:00.188Z,6916
2016-06-29T11:39:59.617Z,6848
2016-06-29T11:40:59.631Z,6808
2016-06-29T11:42:00.273Z,6716
2016-06-29T11:43:00.297Z,6580
2016-06-29T11:44:00.956Z,6528
2016-06-29T11:46:01.010Z,6412
2016-06-29T11:47:01.245Z,6420
2016-06-29T11:48:00.452Z,6472
2016-06-29T11:49:00.482Z,6556
2016-06-29T11:50:00.502Z,6612
2016-06-29T11:51:59.346Z,5688
2016-06-29T11:53:15.480Z,4268
2016-06-29T11:55:01.269Z,7144
2016-06-29T11:56:00.075Z,6136
2016-06-29T11:56:59.483Z,6428
2016-06-29T11:58:15.008Z,4764
2016-06-29T12:00:00.843Z,7912
2016-06-29T12:01:01.455Z,7696
2016-06-29T12:02:15.162Z,7988
2016-06-29T12:03:00.887Z,8164
2016-06-29T12:04:01.521Z,8016
2016-06-29T12:05:01.552Z,7860
2016-06-29T12:06:00.366Z,6072
2016-06-29T12:07:01.611Z,5828
2016-06-29T12:09:01.058Z,5472
2016-06-29T12:10:01.089Z,5908
2016-06-29T12:11:01.112Z,6460
2016-06-29T12:11:59.937Z,6720
2016-06-29T12:13:00.563Z,6724
2016-06-29T12:14:14.867Z,6464
2016-06-29T12:15:01.242Z,6200
2016-06-29T12:16:01.871Z,6024
2016-06-29T12:17:01.289Z,6320
2016-06-29T12:18:00.091Z,9408
2016-06-29T12:19:14.995Z,9888
2016-06-29T12:20:01.367Z,10436
2016-06-29T12:21:00.197Z,10244
2016-06-29T12:22:00.826Z,9876
2016-06-29T12:23:00.855Z,9776
2016-06-29T12:24:00.889Z,9104
2016-06-29T12:25:01.532Z,9792
2016-06-29T12:26:01.568Z,9888
2016-06-29T12:27:02.197Z,8028
2016-06-29T12:28:01.612Z,7644
2016-06-29T12:29:15.303Z,7452
2016-06-29T12:30:16.560Z,7840
2016-06-29T12:32:01.724Z,7132
2016-06-29T12:33:02.369Z,7412
2016-06-29T12:34:01.786Z,7016
2016-06-29T12:35:01.858Z,7148
2016-06-29T12:36:01.881Z,7792
2016-06-29T12:37:02.503Z,7684
2016-06-29T12:38:01.912Z,8896
2016-06-29T12:39:02.550Z,9412
2016-06-29T12:40:01.986Z,8256
2016-06-29T12:41:16.255Z,8384
2016-06-29T12:42:00.789Z,8052
2016-06-29T12:43:01.425Z,8324
2016-06-29T12:44:02.072Z,9828
2016-06-29T12:45:02.098Z,9296
2016-06-29T12:46:30.675Z,10808
2016-06-29T12:47:01.587Z,9880
2016-06-29T12:48:02.206Z,10336
2016-06-29T12:49:02.823Z,9608
2016-06-29T12:50:01.043Z,7120
2016-06-29T12:51:02.899Z,9276
2016-06-29T12:52:02.305Z,9968
2016-06-29T12:53:02.341Z,7700
2016-06-29T12:54:02.372Z,5972
2016-06-29T12:55:03.005Z,6012
2016-06-29T12:56:03.065Z,5568
2016-06-29T12:57:02.471Z,5604
2016-06-29T12:58:03.091Z,5780
2016-06-29T12:59:03.130Z,5628
2016-06-29T13:00:01.933Z,5920
2016-06-29T13:02:16.254Z,6336
2016-06-29T13:03:02.031Z,6344
2016-06-29T13:04:03.283Z,6688
2016-06-29T13:05:17.564Z,6960
2016-06-29T13:06:02.721Z,7584
2016-06-29T13:07:02.757Z,7568
2016-06-29T13:08:02.777Z,7564
2016-06-29T13:09:02.217Z,7100
2016-06-29T13:10:17.717Z,6744
2016-06-29T13:12:01.682Z,5716
2016-06-29T13:13:02.919Z,5188
2016-06-29T13:14:03.616Z,4660
2016-06-29T13:15:02.390Z,4200
2016-06-29T13:16:16.673Z,4080
2016-06-29T13:17:03.041Z,4432
2016-06-29T13:18:03.109Z,4468
2016-06-29T13:19:03.111Z,4400
2016-06-29T13:20:01.927Z,5084
2016-06-29T13:22:03.203Z,6068
2016-06-29T13:23:03.836Z,6428
2016-06-29T13:24:03.257Z,6940
2016-06-29T13:25:02.667Z,7836
2016-06-29T13:26:02.714Z,8088
2016-06-29T13:27:03.332Z,8112
2016-06-29T13:28:03.982Z,8116
2016-06-29T13:29:17.667Z,8728
2016-06-29T13:30:02.848Z,7492
2016-06-29T13:31:03.458Z,6856
2016-06-29T13:32:03.478Z,6472
2016-06-29T13:33:17.191Z,6832
2016-06-29T13:34:17.809Z,7412
2016-06-29T13:35:02.984Z,7400
2016-06-29T13:36:02.987Z,7440
2016-06-29T13:37:02.426Z,7324
2016-06-29T13:38:03.660Z,6992
2016-06-29T13:39:03.699Z,6212
2016-06-29T13:40:17.379Z,5312
2016-06-29T13:41:03.752Z,4908
2016-06-29T13:42:03.159Z,4392
2016-06-29T13:43:03.212Z,4136
2016-06-29T13:45:03.249Z,5136
2016-06-29T13:46:04.529Z,6380
2016-06-29T13:47:03.917Z,6796
2016-06-29T13:48:02.743Z,10536
2016-06-29T13:49:17.637Z,8696
2016-06-29T13:50:18.893Z,11892
2016-06-29T13:51:03.445Z,10804
2016-06-29T13:52:03.447Z,9072
2016-06-29T13:53:04.755Z,11548
2016-06-29T13:54:04.121Z,6864
2016-06-29T13:55:04.763Z,9816
2016-06-29T13:56:04.176Z,9228
2016-06-29T13:57:02.987Z,6788
2016-06-29T13:58:03.634Z,6200
2016-06-29T13:59:03.653Z,8872
2016-06-29T14:00:04.910Z,8832
2016-06-29T14:01:03.103Z,8796
2016-06-29T14:02:04.371Z,7012
2016-06-29T14:03:03.784Z,6604
2016-06-29T14:04:04.418Z,5340
2016-06-29T14:05:18.713Z,4896
2016-06-29T14:06:19.362Z,4976
2016-06-29T14:08:04.528Z,4592
2016-06-29T14:09:04.563Z,4352
2016-06-29T14:10:04.587Z,4192
2016-06-29T14:11:04.007Z,4280
2016-06-29T14:12:05.244Z,4284
2016-06-29T14:13:04.666Z,4020
2016-06-29T14:14:04.098Z,4104
2016-06-29T14:15:04.731Z,3716
2016-06-29T14:16:04.151Z,4036
2016-06-29T14:17:03.626Z,4684
2016-06-29T14:18:05.438Z,6844
2016-06-29T14:19:04.852Z,7056
2016-06-29T14:20:04.283Z,7644
2016-06-29T14:21:19.785Z,10740
2016-06-29T14:22:04.930Z,11204
2016-06-29T14:23:04.950Z,11152
2016-06-29T14:24:05.602Z,8064